地図

経路データ

SID SEASON NUMBER BASIN SUBBASIN NAME ISO_TIME NATURE LAT LON WMO_WIND WMO_PRES WMO_AGENCY TRACK_TYPE DIST2LAND LANDFALL IFLAG USA_AGENCY USA_ATCF_ID USA_LAT USA_LON USA_RECORD USA_STATUS USA_WIND USA_PRES USA_SSHS USA_R34_NE USA_R34_SE USA_R34_SW USA_R34_NW USA_R50_NE USA_R50_SE USA_R50_SW USA_R50_NW USA_R64_NE USA_R64_SE USA_R64_SW USA_R64_NW USA_POCI USA_ROCI USA_RMW USA_EYE TOKYO_LAT TOKYO_LON TOKYO_GRADE TOKYO_WIND TOKYO_PRES TOKYO_R50_DIR TOKYO_R50_LONG TOKYO_R50_SHORT TOKYO_R30_DIR TOKYO_R30_LONG TOKYO_R30_SHORT TOKYO_LAND CMA_LAT CMA_LON CMA_CAT CMA_WIND CMA_PRES HKO_LAT HKO_LON HKO_CAT HKO_WIND HKO_PRES NEWDELHI_LAT NEWDELHI_LON NEWDELHI_GRADE NEWDELHI_WIND NEWDELHI_PRES NEWDELHI_CI NEWDELHI_DP NEWDELHI_POCI REUNION_LAT REUNION_LON REUNION_TYPE REUNION_WIND REUNION_PRES REUNION_TNUM REUNION_CI REUNION_RMW REUNION_R34_NE REUNION_R34_SE REUNION_R34_SW REUNION_R34_NW REUNION_R50_NE REUNION_R50_SE REUNION_R50_SW REUNION_R50_NW REUNION_R64_NE REUNION_R64_SE REUNION_R64_SW REUNION_R64_NW BOM_LAT BOM_LON BOM_TYPE BOM_WIND BOM_PRES BOM_TNUM BOM_CI BOM_RMW BOM_R34_NE BOM_R34_SE BOM_R34_SW BOM_R34_NW BOM_R50_NE BOM_R50_SE BOM_R50_SW BOM_R50_NW BOM_R64_NE BOM_R64_SE BOM_R64_SW BOM_R64_NW BOM_ROCI BOM_POCI BOM_EYE BOM_POS_METHOD BOM_PRES_METHOD NADI_LAT NADI_LON NADI_CAT NADI_WIND NADI_PRES WELLINGTON_LAT WELLINGTON_LON WELLINGTON_WIND WELLINGTON_PRES DS824_LAT DS824_LON DS824_STAGE DS824_WIND DS824_PRES TD9636_LAT TD9636_LON TD9636_STAGE TD9636_WIND TD9636_PRES TD9635_LAT TD9635_LON TD9635_WIND TD9635_PRES TD9635_ROCI NEUMANN_LAT NEUMANN_LON NEUMANN_CLASS NEUMANN_WIND NEUMANN_PRES MLC_LAT MLC_LON MLC_CLASS MLC_WIND MLC_PRES USA_GUST BOM_GUST BOM_GUST_PER REUNION_GUST REUNION_GUST_PER USA_SEAHGT USA_SEARAD_NE USA_SEARAD_SE USA_SEARAD_SW USA_SEARAD_NW STORM_SPEED STORM_DIR
1866295N28326 1866 25 NA NA NOT_NAMED 1866-10-21 12:00:00 TS 27.5000 -34.0000 main 1689 1689 _____________O -1 27.5000 -34.0000 TD 30 11 318
1866295N28326 1866 25 NA NA NOT_NAMED 1866-10-21 15:00:00 TS 27.8952 -34.3995 main 1723 1723 _____________P -1 27.8952 -34.3995 TD 30 11 319
1866295N28326 1866 25 NA NA NOT_NAMED 1866-10-21 18:00:00 TS 28.3000 -34.8000 main 1758 1758 _____________O -1 28.3000 -34.8000 TD 30 11 319
1866295N28326 1866 25 NA NA NOT_NAMED 1866-10-21 21:00:00 TS 28.7149 -35.2001 main 1794 1794 _____________P -1 28.7149 -35.2001 TD 32 11 319
1866295N28326 1866 25 NA NA NOT_NAMED 1866-10-22 00:00:00 TS 29.1000 -35.6000 main 1831 1831 _____________O -1 29.1000 -35.6000 TS 35 10 315
1866295N28326 1866 25 NA NA NOT_NAMED 1866-10-22 03:00:00 TS 29.4149 -36.0004 main 1869 1869 _____________P -1 29.4149 -36.0004 TS 35 9 311
1866295N28326 1866 25 NA NA NOT_NAMED 1866-10-22 06:00:00 TS 29.7000 -36.4000 main 1907 1907 _____________O -1 29.7000 -36.4000 TS 35 9 310
1866295N28326 1866 25 NA NA NOT_NAMED 1866-10-22 09:00:00 TS 29.9999 -36.8077 main 1946 1946 _____________P -1 29.9999 -36.8077 TS 35 9 311
1866295N28326 1866 25 NA NA NOT_NAMED 1866-10-22 12:00:00 TS 30.3000 -37.2000 main 1985 1985 _____________O -1 30.3000 -37.2000 TS 35 9 313
1866295N28326 1866 25 NA NA NOT_NAMED 1866-10-22 15:00:00 TS 30.5999 -37.5652 main 2024 2024 _____________P -1 30.5999 -37.5652 TS 37 9 315
1866295N28326 1866 25 NA NA NOT_NAMED 1866-10-22 18:00:00 TS 30.9000 -37.9000 main 2054 2054 _____________O -1 30.9000 -37.9000 TS 40 8 317
1866295N28326 1866 25 NA NA NOT_NAMED 1866-10-22 21:00:00 TS 31.2074 -38.2151 main 2084 2084 _____________P -1 31.2074 -38.2151 TS 42 8 319
1866295N28326 1866 25 NA NA NOT_NAMED 1866-10-23 00:00:00 TS 31.5000 -38.5000 main 2096 2053 _____________O -1 31.5000 -38.5000 TS 45 7 320
1866295N28326 1866 25 NA NA NOT_NAMED 1866-10-23 03:00:00 TS 31.7649 -38.7651 main 2053 2024 _____________P -1 31.7649 -38.7651 TS 47 7 320
1866295N28326 1866 25 NA NA NOT_NAMED 1866-10-23 06:00:00 TS 32.0000 -39.0000 main 2024 1995 _____________O -1 32.0000 -39.0000 TS 50 6 320
1866295N28326 1866 25 NA NA NOT_NAMED 1866-10-23 09:00:00 TS 32.2149 -39.2076 main 1995 1966 _____________P -1 32.2149 -39.2076 TS 52 5 320
1866295N28326 1866 25 NA NA NOT_NAMED 1866-10-23 12:00:00 TS 32.4000 -39.4000 main 1966 1947 _____________O -1 32.4000 -39.4000 TS 55 5 316
1866295N28326 1866 25 NA NA NOT_NAMED 1866-10-23 15:00:00 TS 32.5575 -39.6001 main 1937 1918 _____________P -1 32.5575 -39.6001 TS 57 5 312
1866295N28326 1866 25 NA NA NOT_NAMED 1866-10-23 18:00:00 TS 32.7000 -39.8000 main 1918 1898 _____________O -1 32.7000 -39.8000 TS 60 5 310
1866295N28326 1866 25 NA NA NOT_NAMED 1866-10-23 21:00:00 TS 32.8500 -40.0075 main 1889 1870 _____________P -1 32.8500 -40.0075 TS 60 5 312
1866295N28326 1866 25 NA NA NOT_NAMED 1866-10-24 00:00:00 TS 33.0000 -40.2000 main 1870 1841 _____________O -1 33.0000 -40.2000 TS 60 4 315
1866295N28326 1866 25 NA NA NOT_NAMED 1866-10-24 03:00:00 TS 33.1650 -40.3800 main 1841 1826 _____________P -1 33.1650 -40.3800 TS 65 4 320
1866295N28326 1866 25 NA NA NOT_NAMED 1866-10-24 06:00:00 TS 33.3000 -40.5000 main 1826 1817 _____________O -1 33.3000 -40.5000 HU 70 984 2 330
1866295N28326 1866 25 NA NA NOT_NAMED 1866-10-24 09:00:00 TS 33.3650 -40.5151 main 1817 1817 _____________P -1 33.3650 -40.5151 HU 72 1 0
1866295N28326 1866 25 NA NA NOT_NAMED 1866-10-24 12:00:00 TS 33.4000 -40.5000 main 1817 1817 _____________O -1 33.4000 -40.5000 HU 75 1 331
1866295N28326 1866 25 NA NA NOT_NAMED 1866-10-24 15:00:00 TS 33.4500 -40.5500 main 1808 1803 _____________P -1 33.4500 -40.5500 HU 75 1 323
1866295N28326 1866 25 NA NA NOT_NAMED 1866-10-24 18:00:00 TS 33.5000 -40.6000 main 1803 1793 _____________O -1 33.5000 -40.6000 HU 75 1 344
1866295N28326 1866 25 NA NA NOT_NAMED 1866-10-24 21:00:00 TS 33.5575 -40.6000 main 1793 1793 _____________P -1 33.5575 -40.6000 HU 75 1 0
1866295N28326 1866 25 NA NA NOT_NAMED 1866-10-25 00:00:00 TS 33.6000 -40.6000 main 1793 1793 _____________O -1 33.6000 -40.6000 HU 75 1 319
1866295N28326 1866 25 NA NA NOT_NAMED 1866-10-25 03:00:00 TS 33.6000 -40.6500 main 1788 1788 _____________P -1 33.6000 -40.6500 HU 75 1 270
1866295N28326 1866 25 NA NA NOT_NAMED 1866-10-25 06:00:00 TS 33.6000 -40.7000 main 1788 1788 _____________O -1 33.6000 -40.7000 HU 75 1 317
1866295N28326 1866 25 NA NA NOT_NAMED 1866-10-25 09:00:00 TS 33.6500 -40.7075 main 1779 1779 _____________P -1 33.6500 -40.7075 HU 75 1 0
1866295N28326 1866 25 NA NA NOT_NAMED 1866-10-25 12:00:00 TS 33.7000 -40.7000 main 1779 1779 _____________O -1 33.7000 -40.7000 HU 75 1 0
1866295N28326 1866 25 NA NA NOT_NAMED 1866-10-25 15:00:00 TS 33.7075 -40.6925 main 1779 1779 _____________P -1 33.7075 -40.6925 HU 75 0 0
1866295N28326 1866 25 NA NA NOT_NAMED 1866-10-25 18:00:00 TS 33.7000 -40.7000 main 1779 1779 _____________O -1 33.7000 -40.7000 HU 75 1 248
1866295N28326 1866 25 NA NA NOT_NAMED 1866-10-25 21:00:00 TS 33.6925 -40.7500 main 1779 1774 _____________P -1 33.6925 -40.7500 HU 75 1 270
1866295N28326 1866 25 NA NA NOT_NAMED 1866-10-26 00:00:00 TS 33.7000 -40.8000 main 1774 1774 _____________O -1 33.7000 -40.8000 HU 75 1 317
1866295N28326 1866 25 NA NA NOT_NAMED 1866-10-26 03:00:00 TS 33.7425 -40.8075 main 1774 1764 _____________P -1 33.7425 -40.8075 HU 75 1 0
1866295N28326 1866 25 NA NA NOT_NAMED 1866-10-26 06:00:00 TS 33.8000 -40.8000 main 1764 1764 _____________O -1 33.8000 -40.8000 HU 75 1 0
1866295N28326 1866 25 NA NA NOT_NAMED 1866-10-26 09:00:00 TS 33.8500 -40.7925 main 1755 1755 _____________P -1 33.8500 -40.7925 HU 75 1 0
1866295N28326 1866 25 NA NA NOT_NAMED 1866-10-26 12:00:00 TS 33.9000 -40.8000 main 1755 1755 _____________O -1 33.9000 -40.8000 HU 75 1 343
1866295N28326 1866 25 NA NA NOT_NAMED 1866-10-26 15:00:00 TS 33.9500 -40.8500 main 1746 1741 _____________P -1 33.9500 -40.8500 HU 75 1 323
1866295N28326 1866 25 NA NA NOT_NAMED 1866-10-26 18:00:00 TS 34.0000 -40.9000 main 1741 1741 _____________O -1 34.0000 -40.9000 HU 75 1 343
1866295N28326 1866 25 NA NA NOT_NAMED 1866-10-26 21:00:00 TS 34.0500 -40.9000 main 1741 1731 _____________P -1 34.0500 -40.9000 HU 72 1 0
1866295N28326 1866 25 NA NA NOT_NAMED 1866-10-27 00:00:00 TS 34.1000 -40.9000 main 1731 1731 _____________O -1 34.1000 -40.9000 HU 70 1 331
1866295N28326 1866 25 NA NA NOT_NAMED 1866-10-27 03:00:00 TS 34.1350 -40.9500 main 1731 1717 _____________P -1 34.1350 -40.9500 HU 67 1 323
1866295N28326 1866 25 NA NA NOT_NAMED 1866-10-27 06:00:00 TS 34.2000 -41.0000 main 1717 1708 _____________O -1 34.2000 -41.0000 HU 65 2 347
1866295N28326 1866 25 NA NA NOT_NAMED 1866-10-27 09:00:00 TS 34.3350 -41.0075 main 1708 1689 _____________P -1 34.3350 -41.0075 HU 65 3 0
1866295N28326 1866 25 NA NA NOT_NAMED 1866-10-27 12:00:00 TS 34.5000 -41.0000 main 1689 1680 _____________O -1 34.5000 -41.0000 HU 65 3 0
1866295N28326 1866 25 NA NA NOT_NAMED 1866-10-27 15:00:00 TS 34.6425 -41.0000 main 1680 1661 _____________P -1 34.6425 -41.0000 HU 65 3 0
1866295N28326 1866 25 NA NA NOT_NAMED 1866-10-27 18:00:00 TS 34.8000 -41.0000 main 1661 1643 _____________O -1 34.8000 -41.0000 HU 65 4 356
1866295N28326 1866 25 NA NA NOT_NAMED 1866-10-27 21:00:00 TS 35.0000 -41.0149 main 1643 1624 _____________P -1 35.0000 -41.0149 HU 62 4 0
1866295N28326 1866 25 NA NA NOT_NAMED 1866-10-28 00:00:00 TS 35.2000 -41.0000 main 1624 1615 _____________O -1 35.2000 -41.0000 TS 60 3 11
1866295N28326 1866 25 NA NA NOT_NAMED 1866-10-28 03:00:00 TS 35.3274 -40.9372 main 1621 1608 _____________P -1 35.3274 -40.9372 TS 60 3 28
1866295N28326 1866 25 NA NA NOT_NAMED 1866-10-28 06:00:00 TS 35.5000 -40.8000 main 1608 1592 _____________O -1 35.5000 -40.8000 TS 60 6 28
1866295N28326 1866 25 NA NA NOT_NAMED 1866-10-28 09:00:00 TS 35.8272 -40.6098 main 1592 1573 _____________P -1 35.8272 -40.6098 TS 57 8 30
1866295N28326 1866 25 NA NA NOT_NAMED 1866-10-28 12:00:00 TS 36.2000 -40.3000 main 1573 1567 _____________O -1 36.2000 -40.3000 TS 55 9 43
1866295N28326 1866 25 NA NA NOT_NAMED 1866-10-28 15:00:00 TS 36.5079 -39.8226 main 1576 1570 _____________P -1 36.5079 -39.8226 TS 55 10 53
1866295N28326 1866 25 NA NA NOT_NAMED 1866-10-28 18:00:00 TS 36.8000 -39.3000 main 1580 1578 _____________O -1 36.8000 -39.3000 TS 55 9 53
1866295N28326 1866 25 NA NA NOT_NAMED 1866-10-28 21:00:00 TS 37.0621 -38.8913 main 1579 1577 _____________P -1 37.0621 -38.8913 TS 52 9 47
1866295N28326 1866 25 NA NA NOT_NAMED 1866-10-29 00:00:00 TS 37.4000 -38.5000 main 1580 1560 _____________O -1 37.4000 -38.5000 TS 50 11 35
1866295N28326 1866 25 NA NA NOT_NAMED 1866-10-29 03:00:00 TS 37.9189 -38.1237 main 1566 1553 _____________P -1 37.9189 -38.1237 TS 50 13 33
1866295N28326 1866 25 NA NA NOT_NAMED 1866-10-29 06:00:00 TS 38.5000 -37.6000 main 1553 1551 _____________O -1 38.5000 -37.6000 TS 50 15 45
1866295N28326 1866 25 NA NA NOT_NAMED 1866-10-29 09:00:00 TS 38.9705 -36.7732 main 1570 1570 _____________P -1 38.9705 -36.7732 TS 47 17 54
1866295N28326 1866 25 NA NA NOT_NAMED 1866-10-29 12:00:00 TS 39.5000 -35.8000 main 1604 1604 _____________O -1 39.5000 -35.8000 TS 45 19 50
1866295N28326 1866 25 NA NA NOT_NAMED 1866-10-29 15:00:00 TS 40.2120 -34.8571 main 1623 1623 _____________P -1 40.2120 -34.8571 TS 45 21 44
1866295N28326 1866 25 NA NA NOT_NAMED 1866-10-29 18:00:00 TS 41.0000 -33.9000 main 1644 1644 _____________O -1 41.0000 -33.9000 TS 45 21 43
1866295N28326 1866 25 NA NA NOT_NAMED 1866-10-29 21:00:00 TS 41.7494 -32.9406 main 1676 1670 _____________P -1 41.7494 -32.9406 TS 45 21 43
1866295N28326 1866 25 NA NA NOT_NAMED 1866-10-30 00:00:00 TS 42.5000 -32.0000 main 1700 1700 _____________O -1 42.5000 -32.0000 TS 45 20 42
1866295N28326 1866 25 NA NA NOT_NAMED 1866-10-30 03:00:00 TS 43.2566 -31.0904 main 1729 1678 _____________P -1 43.2566 -31.0904 TS 45 20 41
1866295N28326 1866 25 NA NA NOT_NAMED 1866-10-30 06:00:00 ET 44.0000 -30.2000 main 1678 1593 _____________O -1 44.0000 -30.2000 EX 45 19 42
1866295N28326 1866 25 NA NA NOT_NAMED 1866-10-30 09:00:00 ET 44.7068 -29.2975 main 1593 1491 _____________P -1 44.7068 -29.2975 EX 45 19 42
1866295N28326 1866 25 NA NA NOT_NAMED 1866-10-30 12:00:00 ET 45.4000 -28.4000 main 1491 1390 _____________O -1 45.4000 -28.4000 EX 45 19 42
1866295N28326 1866 25 NA NA NOT_NAMED 1866-10-30 15:00:00 ET 46.0993 -27.4977 main 1390 1290 _____________P -1 46.0993 -27.4977 EX 45 19 42
1866295N28326 1866 25 NA NA NOT_NAMED 1866-10-30 18:00:00 ET 46.8000 -26.6000 main 1290 1192 _____________O -1 46.8000 -26.6000 EX 45 19 41
1866295N28326 1866 25 NA NA NOT_NAMED 1866-10-30 21:00:00 ET 47.4993 -25.6976 main 1192 1097 _____________P -1 47.4993 -25.6976 EX 45 19 41
1866295N28326 1866 25 NA NA NOT_NAMED 1866-10-31 00:00:00 ET 48.2000 -24.8000 main 1097 1010 _____________O -1 48.2000 -24.8000 EX 45 18 40
1866295N28326 1866 25 NA NA NOT_NAMED 1866-10-31 03:00:00 ET 48.8989 -23.9118 main 1004 921 _____________P -1 48.8989 -23.9118 EX 45 18 40
1866295N28326 1866 25 NA NA NOT_NAMED 1866-10-31 06:00:00 ET 49.6000 -23.0000 main 914 827 _____________O -1 49.6000 -23.0000 EX 45 19 41
1866295N28326 1866 25 NA NA NOT_NAMED 1866-10-31 09:00:00 ET 50.3020 -22.0265 main 820 738 _____________P -1 50.3020 -22.0265 EX 45 19 42
1866295N28326 1866 25 NA NA NOT_NAMED 1866-10-31 12:00:00 ET 51.0000 -21.0000 main 731 _____________O -1 51.0000 -21.0000 EX 45 19 43

IBTrACS Databaseについて

本データベースは、米国NOAAが公開する1842年以降の世界の熱帯低気圧のベストトラックデータアーカイブInternational Best Track Archive for Climate Stewardship (IBTrACS)を、ウェブで閲覧しやすい形式に変換したものです。

最終更新日:2021-12-03